Copenhagen Airport, Kastrup

Airport
ICAO code: 
EKCH
IATA Code: 
CPH
Summary
ICAO Region: 
EUR
Territory: 
Location: 
Kastrup, Hovedstaden
Serving: 
Copenhagen
Elevation: 
17 ft
Coordinates: 
Aerial View: 
55° 36' 53.791" N, 12° 38' 46.245" E
Airport LOS: 
Parallel Runway Operation
Metar
Observation
EKCH 262350Z AUTO 25014KT 9999 OVC019/// 06/04 Q1013 NOSIG
Station
Koebenhavn / Kastrup
Date/Time
2022-01-26 23:50:00
Wind direction
250°
Wind speed
14 kts
Lowest cloud amount
overcast
Temperature
6°C
Dew point
4°C
Humidity
86%
QNH
1013 hPa
Weather condition
n/a

International airport serving the Danish capital.

Climatology

Temperate Marine climate/Oceanic climate (Köppen climate classification Cfb). Moderately cool summer and comparatively warm winter with a temperature range of only 14°C. Prevailing south-westerly winds from the Atlantic Ocean.

Runways

Designator Length Width Surface Rops
12/30 3070 45 PEM Yes/Yes
04R/22L 3300 45 ASP Yes/Yes
04L/22R 3600 45 ASP Yes/Yes

SKYbrary Partners:

Safety knowledge contributed by: